createdAt,value
2018-07-12T00:01:40.031Z,3.70
2018-07-12T00:04:06.449Z,3.83
2018-07-12T00:06:32.874Z,4.13
2018-07-12T00:08:59.306Z,3.70
2018-07-12T00:11:25.742Z,4.20
2018-07-12T00:13:52.401Z,3.63
2018-07-12T00:16:18.836Z,4.03
2018-07-12T00:18:45.275Z,3.97
2018-07-12T00:21:11.732Z,4.00
2018-07-12T00:23:38.164Z,3.70
2018-07-12T00:26:04.621Z,3.30
2018-07-12T00:28:31.066Z,3.30
2018-07-12T00:30:57.485Z,2.90
2018-07-12T00:33:23.914Z,2.47
2018-07-12T00:35:50.366Z,3.07
2018-07-12T00:38:16.807Z,3.17
2018-07-12T00:40:43.245Z,3.60
2018-07-12T00:43:09.666Z,4.43
2018-07-12T00:45:36.108Z,4.20
2018-07-12T00:48:02.571Z,4.50
2018-07-12T00:50:29.030Z,4.07
2018-07-12T00:52:55.480Z,4.67
2018-07-12T00:55:21.941Z,4.70
2018-07-12T00:57:48.405Z,4.30
2018-07-12T01:00:15.069Z,4.80
2018-07-12T01:02:41.513Z,5.03
2018-07-12T01:05:07.949Z,5.27
2018-07-12T01:07:34.374Z,5.43
2018-07-12T01:10:01.659Z,5.30
2018-07-12T01:12:28.078Z,5.10
2018-07-12T01:14:54.528Z,5.40
2018-07-12T01:17:20.949Z,5.10
2018-07-12T01:19:47.387Z,5.27
2018-07-12T01:22:13.833Z,8.20
2018-07-12T01:24:40.275Z,5.00
2018-07-12T01:27:06.706Z,4.90
2018-07-12T01:29:33.152Z,4.43
2018-07-12T01:31:59.577Z,4.53
2018-07-12T01:34:26.026Z,4.97
2018-07-12T01:36:52.634Z,5.00
2018-07-12T01:39:19.267Z,5.47
2018-07-12T01:41:45.717Z,5.07
2018-07-12T01:44:12.160Z,5.40
2018-07-12T01:46:38.617Z,5.43
2018-07-12T01:49:05.070Z,5.63
2018-07-12T01:51:31.526Z,4.93
2018-07-12T01:53:57.975Z,5.50
2018-07-12T01:56:24.428Z,5.37
2018-07-12T01:58:50.878Z,5.37
2018-07-12T02:01:17.321Z,5.27
2018-07-12T02:03:43.746Z,5.27
2018-07-12T02:06:10.181Z,5.80
2018-07-12T02:08:36.645Z,5.17
2018-07-12T02:11:03.076Z,5.03
2018-07-12T02:13:29.521Z,5.07
2018-07-12T02:15:55.961Z,5.33
2018-07-12T02:18:22.397Z,5.30
2018-07-12T02:20:48.844Z,5.90
2018-07-12T02:23:15.303Z,5.23
2018-07-12T02:25:41.734Z,5.13
2018-07-12T02:28:08.183Z,5.50
2018-07-12T02:30:34.623Z,5.43
2018-07-12T02:33:01.082Z,5.17
2018-07-12T02:35:27.522Z,4.87
2018-07-12T02:37:54.006Z,4.70
2018-07-12T02:40:20.438Z,4.93
2018-07-12T02:42:46.886Z,5.33
2018-07-12T02:45:13.318Z,5.63
2018-07-12T02:47:39.749Z,5.67
2018-07-12T02:50:06.197Z,5.43
2018-07-12T02:52:32.634Z,5.50
2018-07-12T02:54:59.077Z,5.30
2018-07-12T02:57:25.510Z,5.40
2018-07-12T02:59:51.948Z,5.00
2018-07-12T03:02:18.404Z,5.33
2018-07-12T03:04:44.837Z,4.90
2018-07-12T03:07:11.278Z,5.60
2018-07-12T03:09:37.711Z,5.30
2018-07-12T03:12:04.162Z,4.67
2018-07-12T03:14:30.591Z,5.10
2018-07-12T03:16:57.021Z,4.70
2018-07-12T03:19:23.455Z,4.90
2018-07-12T03:21:49.928Z,5.30
2018-07-12T03:24:16.382Z,5.70
2018-07-12T03:26:42.825Z,5.47
2018-07-12T03:29:09.270Z,5.80
2018-07-12T03:31:35.709Z,6.60
2018-07-12T03:34:02.154Z,6.83
2018-07-12T03:36:28.585Z,7.43
2018-07-12T03:38:55.024Z,7.90
2018-07-12T03:41:21.460Z,7.70
2018-07-12T03:43:47.944Z,6.90
2018-07-12T03:46:14.382Z,7.10
2018-07-12T03:48:40.825Z,6.77
2018-07-12T03:51:07.272Z,6.10
2018-07-12T03:53:33.698Z,5.17
2018-07-12T03:56:00.124Z,5.60
2018-07-12T03:58:26.572Z,5.93
2018-07-12T04:00:53.005Z,5.47
2018-07-12T04:03:19.451Z,5.83
2018-07-12T04:05:45.895Z,5.60
2018-07-12T04:08:12.314Z,6.30
2018-07-12T04:10:38.737Z,5.37
2018-07-12T04:13:05.181Z,5.20
2018-07-12T04:15:31.626Z,5.53
2018-07-12T04:17:58.082Z,5.77
2018-07-12T04:20:24.521Z,5.30
2018-07-12T04:22:50.965Z,4.90
2018-07-12T04:25:17.413Z,5.53
2018-07-12T04:27:43.840Z,5.57
2018-07-12T04:30:10.274Z,5.00
2018-07-12T04:32:36.713Z,5.27
2018-07-12T04:35:03.177Z,5.87
2018-07-12T04:37:29.617Z,5.53
2018-07-12T04:39:56.085Z,6.13
2018-07-12T04:42:22.527Z,5.43
2018-07-12T04:44:48.949Z,5.13
2018-07-12T04:47:15.369Z,5.33
2018-07-12T04:49:41.833Z,4.80
2018-07-12T04:52:08.278Z,4.97
2018-07-12T04:54:34.715Z,4.67
2018-07-12T04:57:01.154Z,4.93
2018-07-12T04:59:27.590Z,4.70
2018-07-12T05:01:54.026Z,5.93
2018-07-12T05:04:20.465Z,5.20
2018-07-12T05:06:46.883Z,5.20
2018-07-12T05:09:13.320Z,4.80
2018-07-12T05:11:39.750Z,4.57
2018-07-12T05:14:06.214Z,5.10
2018-07-12T05:16:32.638Z,5.50
2018-07-12T05:18:59.067Z,5.30
2018-07-12T05:21:25.504Z,6.73
2018-07-12T05:23:51.950Z,6.90
2018-07-12T05:26:18.402Z,7.47
2018-07-12T05:28:44.831Z,9.33
2018-07-12T05:31:11.280Z,8.90
2018-07-12T05:33:37.722Z,10.40
2018-07-12T05:36:50.133Z,9.03
2018-07-12T05:39:18.703Z,8.33
2018-07-12T05:41:46.405Z,9.10
2018-07-12T05:44:14.689Z,8.93
2018-07-12T05:46:42.643Z,11.30
2018-07-12T05:49:10.290Z,10.60
2018-07-12T05:51:37.959Z,9.47
2018-07-12T05:54:05.993Z,9.00
2018-07-12T05:56:33.658Z,8.30
2018-07-12T05:59:01.470Z,8.10
2018-07-12T06:01:40.361Z,7.83
2018-07-12T06:04:08.188Z,8.20
2018-07-12T06:06:35.876Z,7.73
2018-07-12T06:09:05.517Z,7.67
2018-07-12T06:11:33.210Z,9.07
2018-07-12T06:14:01.024Z,7.47
2018-07-12T06:16:28.686Z,6.70
2018-07-12T06:18:56.504Z,6.60
2018-07-12T06:21:24.210Z,6.33
2018-07-12T06:23:51.863Z,6.20
2018-07-12T06:26:19.529Z,6.40
2018-07-12T06:28:47.218Z,6.03
2018-07-12T06:31:14.902Z,6.73
2018-07-12T06:33:42.563Z,6.20
2018-07-12T06:36:10.241Z,6.03
2018-07-12T06:38:37.952Z,6.00
2018-07-12T06:41:05.661Z,6.47
2018-07-12T06:43:33.342Z,6.50
2018-07-12T06:46:00.995Z,6.33
2018-07-12T06:48:28.668Z,5.83
2018-07-12T06:50:56.325Z,6.20
2018-07-12T06:53:24.021Z,7.40
2018-07-12T06:55:51.859Z,6.90
2018-07-12T06:58:19.525Z,7.07
2018-07-12T07:00:47.222Z,7.47
2018-07-12T07:03:14.894Z,7.63
2018-07-12T07:05:42.560Z,7.20
2018-07-12T07:08:10.236Z,7.07
2018-07-12T07:10:38.923Z,6.10
2018-07-12T07:13:06.631Z,7.00
2018-07-12T07:15:34.298Z,6.63
2018-07-12T07:18:01.977Z,7.47
2018-07-12T07:20:29.653Z,7.10
2018-07-12T07:22:57.383Z,7.10
2018-07-12T07:25:25.053Z,7.80
2018-07-12T07:27:52.710Z,8.90
2018-07-12T07:30:20.378Z,8.50
2018-07-12T07:32:48.067Z,9.33
2018-07-12T07:35:15.770Z,8.60
2018-07-12T07:37:43.441Z,9.37
2018-07-12T07:40:11.090Z,8.83
2018-07-12T07:42:38.767Z,8.43
2018-07-12T07:45:06.469Z,9.43
2018-07-12T07:47:34.170Z,9.00
2018-07-12T07:50:01.840Z,8.47
2018-07-12T07:52:29.525Z,8.67
2018-07-12T07:54:57.205Z,7.90
2018-07-12T07:57:24.901Z,6.70
2018-07-12T07:59:52.599Z,6.03
2018-07-12T08:02:20.263Z,5.13
2018-07-12T08:04:47.941Z,5.90
2018-07-12T08:07:15.633Z,5.43
2018-07-12T08:09:43.303Z,6.23
2018-07-12T08:12:11.909Z,5.87
2018-07-12T08:14:39.762Z,5.13
2018-07-12T08:17:07.458Z,5.50
2018-07-12T08:19:35.198Z,4.73
2018-07-12T08:22:06.363Z,5.07
2018-07-12T08:24:34.544Z,5.37
2018-07-12T08:27:02.688Z,5.50
2018-07-12T08:29:30.977Z,5.93
2018-07-12T08:31:58.746Z,5.13
2018-07-12T08:34:26.701Z,5.33
2018-07-12T08:36:54.487Z,5.17
2018-07-12T08:39:22.259Z,5.00
2018-07-12T08:41:50.087Z,4.83
2018-07-12T08:44:18.082Z,4.57
2018-07-12T08:46:45.874Z,5.10
2018-07-12T08:49:13.577Z,5.40
2018-07-12T08:51:41.278Z,5.73
2018-07-12T08:54:08.929Z,5.37
2018-07-12T08:56:36.616Z,5.47
2018-07-12T08:59:04.333Z,5.77
2018-07-12T09:01:32.026Z,4.83
2018-07-12T09:03:59.687Z,4.90
2018-07-12T09:06:27.415Z,5.17
2018-07-12T09:08:55.100Z,5.20
2018-07-12T09:11:22.754Z,5.97
2018-07-12T09:13:50.503Z,5.70
2018-07-12T09:16:18.206Z,5.83
2018-07-12T09:18:45.901Z,4.97
2018-07-12T09:21:13.638Z,5.03
2018-07-12T09:23:41.306Z,4.77
2018-07-12T09:26:08.979Z,5.20
2018-07-12T09:28:36.741Z,4.30
2018-07-12T09:31:04.420Z,4.70
2018-07-12T09:33:32.077Z,4.90
2018-07-12T09:35:59.813Z,5.00
2018-07-12T09:38:45.693Z,4.43
2018-07-12T09:41:13.446Z,5.23
2018-07-12T09:43:42.229Z,4.53
2018-07-12T09:46:09.903Z,4.43
2018-07-12T09:48:39.570Z,4.27
2018-07-12T09:51:07.614Z,3.97
2018-07-12T09:53:35.282Z,4.77
2018-07-12T09:56:03.087Z,5.10
2018-07-12T09:58:30.919Z,4.97
2018-07-12T10:01:04.234Z,5.70
2018-07-12T10:03:37.419Z,4.47
2018-07-12T10:06:10.653Z,5.70
2018-07-12T10:08:43.814Z,4.93
2018-07-12T10:11:16.994Z,4.77
2018-07-12T10:13:50.185Z,5.20
2018-07-12T10:16:24.128Z,5.33
2018-07-12T10:18:51.841Z,4.67
2018-07-12T10:21:19.649Z,5.23
2018-07-12T10:23:47.340Z,5.20
2018-07-12T10:26:15.076Z,5.37
2018-07-12T10:28:42.986Z,5.67
2018-07-12T10:31:10.702Z,5.87
2018-07-12T10:33:38.387Z,5.47
2018-07-12T10:36:06.127Z,5.00
2018-07-12T10:38:33.837Z,5.00
2018-07-12T10:41:01.519Z,5.00
2018-07-12T10:43:29.212Z,5.40
2018-07-12T10:45:59.115Z,5.47
2018-07-12T10:48:26.793Z,5.67
2018-07-12T10:50:55.205Z,4.47
2018-07-12T10:53:22.905Z,4.60
2018-07-12T10:55:50.587Z,4.50
2018-07-12T10:58:18.251Z,4.33
2018-07-12T11:00:45.958Z,4.83
2018-07-12T11:03:13.618Z,4.03
2018-07-12T11:05:41.319Z,4.97
2018-07-12T11:08:09.082Z,2.30
2018-07-12T11:10:36.734Z,2.20
2018-07-12T11:13:13.832Z,2.80
2018-07-12T11:15:41.810Z,2.60
2018-07-12T11:18:09.491Z,3.47
2018-07-12T11:20:37.237Z,3.67
2018-07-12T11:23:04.950Z,4.30
2018-07-12T11:25:32.597Z,4.17
2018-07-12T11:28:00.465Z,3.80
2018-07-12T11:30:28.150Z,3.27
2018-07-12T11:32:55.811Z,3.33
2018-07-12T11:35:23.514Z,3.57
2018-07-12T11:37:51.281Z,4.07
2018-07-12T11:40:18.951Z,3.03
2018-07-12T11:42:46.682Z,4.00
2018-07-12T11:45:14.369Z,3.53
2018-07-12T11:47:42.063Z,3.37
2018-07-12T11:50:09.751Z,3.20
2018-07-12T11:52:37.475Z,3.07
2018-07-12T11:55:05.238Z,3.50
2018-07-12T11:57:33.318Z,3.40
2018-07-12T12:00:00.984Z,3.17
2018-07-12T12:02:28.637Z,3.50
2018-07-12T12:04:56.355Z,3.40
2018-07-12T12:07:24.034Z,3.60
2018-07-12T12:09:51.685Z,3.33
2018-07-12T12:12:19.384Z,3.67
2018-07-12T12:14:47.061Z,2.80
2018-07-12T12:17:14.737Z,3.73
2018-07-12T12:19:42.477Z,3.03
2018-07-12T12:22:10.134Z,2.70
2018-07-12T12:24:37.805Z,2.97
2018-07-12T12:27:05.673Z,3.70
2018-07-12T12:29:33.352Z,3.27
2018-07-12T12:32:01.030Z,4.77
2018-07-12T12:34:28.722Z,5.57
2018-07-12T12:36:56.421Z,5.17
2018-07-12T12:39:24.094Z,4.70
2018-07-12T12:41:51.847Z,3.97
2018-07-12T12:44:19.525Z,3.87
2018-07-12T12:46:47.182Z,4.10
2018-07-12T12:49:14.963Z,4.37
2018-07-12T12:51:42.626Z,5.47
2018-07-12T12:54:10.299Z,4.67
2018-07-12T12:56:38.162Z,4.83
2018-07-12T12:59:05.843Z,4.43
2018-07-12T13:01:33.651Z,4.47
2018-07-12T13:04:01.443Z,4.63
2018-07-12T13:06:29.119Z,4.73
2018-07-12T13:08:56.786Z,4.97
2018-07-12T13:11:24.450Z,5.87
2018-07-12T13:13:52.142Z,5.87
2018-07-12T13:16:21.094Z,5.67
2018-07-12T13:18:48.763Z,6.37
2018-07-12T13:21:16.426Z,5.97
2018-07-12T13:23:44.106Z,6.00
2018-07-12T13:26:11.889Z,5.60
2018-07-12T13:28:39.500Z,5.33
2018-07-12T13:31:07.203Z,4.97
2018-07-12T13:33:34.885Z,7.27
2018-07-12T13:36:02.568Z,5.33
2018-07-12T13:38:30.226Z,5.37
2018-07-12T13:40:57.885Z,6.00
2018-07-12T13:43:25.559Z,5.80
2018-07-12T13:45:53.245Z,6.30
2018-07-12T13:48:20.931Z,6.53
2018-07-12T13:50:49.900Z,6.40
2018-07-12T13:53:17.545Z,5.93
2018-07-12T13:55:45.211Z,5.50
2018-07-12T13:58:12.871Z,5.37
2018-07-12T14:00:40.534Z,5.53
2018-07-12T14:03:08.197Z,5.70
2018-07-12T14:05:35.908Z,5.13
2018-07-12T14:08:03.597Z,4.63
2018-07-12T14:10:31.306Z,4.87
2018-07-12T14:12:58.977Z,4.50
2018-07-12T14:15:26.657Z,3.10
2018-07-12T14:17:54.309Z,3.60
2018-07-12T14:20:22.017Z,3.70
2018-07-12T14:22:49.669Z,5.07
2018-07-12T14:25:17.357Z,4.97
2018-07-12T14:27:45.034Z,4.77
2018-07-12T14:30:12.710Z,4.40
2018-07-12T14:32:40.394Z,5.00
2018-07-12T14:35:08.057Z,4.10
2018-07-12T14:37:35.726Z,4.17
2018-07-12T14:40:03.445Z,4.23
2018-07-12T14:42:31.136Z,4.03
2018-07-12T14:44:58.805Z,4.07
2018-07-12T14:47:26.597Z,3.80
2018-07-12T14:49:54.276Z,4.00
2018-07-12T14:52:22.672Z,3.60
2018-07-12T14:54:50.396Z,3.90
2018-07-12T14:57:18.095Z,3.70
2018-07-12T14:59:45.798Z,4.07
2018-07-12T15:02:13.582Z,4.10
2018-07-12T15:04:41.282Z,3.90
2018-07-12T15:07:08.978Z,4.17
2018-07-12T15:09:36.672Z,3.87
2018-07-12T15:12:04.351Z,3.80
2018-07-12T15:14:32.010Z,4.10
2018-07-12T15:16:59.720Z,3.73
2018-07-12T15:19:27.456Z,3.73
2018-07-12T15:21:55.073Z,3.77
2018-07-12T15:24:22.750Z,3.70
2018-07-12T15:26:50.443Z,3.90
2018-07-12T15:29:18.168Z,3.37
2018-07-12T15:31:45.832Z,3.50
2018-07-12T15:34:13.482Z,3.80
2018-07-12T15:36:41.131Z,3.93
2018-07-12T15:39:09.151Z,3.80
2018-07-12T15:41:37.214Z,4.20
2018-07-12T15:44:04.922Z,3.40
2018-07-12T15:46:32.675Z,3.50
2018-07-12T15:49:00.371Z,3.07
2018-07-12T15:51:28.052Z,3.33
2018-07-12T15:53:55.702Z,3.10
2018-07-12T15:56:23.367Z,3.23
2018-07-12T15:58:51.047Z,3.73
2018-07-12T16:01:18.710Z,3.63
2018-07-12T16:03:46.381Z,3.87
2018-07-12T16:06:14.049Z,3.33
2018-07-12T16:08:41.698Z,3.30
2018-07-12T16:11:09.383Z,2.97
2018-07-12T16:13:37.081Z,3.60
2018-07-12T16:16:04.785Z,2.83
2018-07-12T16:18:32.457Z,2.47
2018-07-12T16:21:00.148Z,2.50
2018-07-12T16:23:27.853Z,2.77
2018-07-12T16:25:55.526Z,2.40
2018-07-12T16:28:23.202Z,3.17
2018-07-12T16:30:50.873Z,2.90
2018-07-12T16:33:18.550Z,2.67
2018-07-12T16:35:46.278Z,2.97
2018-07-12T16:38:13.986Z,2.67
2018-07-12T16:40:41.644Z,3.07
2018-07-12T16:43:09.298Z,2.73
2018-07-12T16:45:36.984Z,2.80
2018-07-12T16:48:04.715Z,2.77
2018-07-12T16:50:32.394Z,2.90
2018-07-12T16:53:00.050Z,2.60
2018-07-12T16:55:27.754Z,2.90
2018-07-12T16:57:55.485Z,3.03
2018-07-12T17:00:23.206Z,3.33
2018-07-12T17:02:50.885Z,2.90
2018-07-12T17:05:18.631Z,2.87
2018-07-12T17:07:46.359Z,3.60
2018-07-12T17:10:14.037Z,3.87
2018-07-12T17:12:41.783Z,3.83
2018-07-12T17:15:09.642Z,3.90
2018-07-12T17:17:37.300Z,3.73
2018-07-12T17:20:04.970Z,3.47
2018-07-12T17:22:32.639Z,3.50
2018-07-12T17:25:00.293Z,3.80
2018-07-12T17:27:27.962Z,3.73
2018-07-12T17:29:55.654Z,4.03
2018-07-12T17:32:23.335Z,3.50
2018-07-12T17:34:51.016Z,3.77
2018-07-12T17:37:18.702Z,3.77
2018-07-12T17:39:46.374Z,3.80
2018-07-12T17:42:14.055Z,3.33
2018-07-12T17:44:41.737Z,3.20
2018-07-12T17:47:09.394Z,3.20
2018-07-12T17:49:37.299Z,3.30
2018-07-12T17:52:05.157Z,3.13
2018-07-12T17:54:32.820Z,3.03
2018-07-12T17:57:00.493Z,2.93
2018-07-12T17:59:28.133Z,2.50
2018-07-12T18:01:55.798Z,3.00
2018-07-12T18:04:23.491Z,3.30
2018-07-12T18:06:51.308Z,3.00
2018-07-12T18:09:18.962Z,2.50
2018-07-12T18:11:46.657Z,2.80
2018-07-12T18:14:14.445Z,2.90
2018-07-12T18:16:42.121Z,2.70
2018-07-12T18:19:09.765Z,3.10
2018-07-12T18:21:37.564Z,2.57
2018-07-12T18:24:05.250Z,2.37
2018-07-12T18:26:32.902Z,2.60
2018-07-12T18:29:00.675Z,2.60
2018-07-12T18:31:28.328Z,2.87
2018-07-12T18:33:55.992Z,2.73
2018-07-12T18:36:23.886Z,2.50
2018-07-12T18:38:51.531Z,2.67
2018-07-12T18:41:19.187Z,2.80
2018-07-12T18:43:46.971Z,2.70
2018-07-12T18:46:14.628Z,2.80
2018-07-12T18:48:42.291Z,2.43
2018-07-12T18:51:10.082Z,2.70
2018-07-12T18:53:37.740Z,2.40
2018-07-12T18:56:05.474Z,2.93
2018-07-12T18:58:33.150Z,2.77
2018-07-12T19:01:00.773Z,2.47
2018-07-12T19:03:28.447Z,2.57
2018-07-12T19:05:56.129Z,2.60
2018-07-12T19:08:23.780Z,3.03
2018-07-12T19:10:51.484Z,2.93
2018-07-12T19:13:19.160Z,2.87
2018-07-12T19:15:46.820Z,2.70
2018-07-12T19:18:14.510Z,2.70
2018-07-12T19:20:42.194Z,2.50
2018-07-12T19:23:09.891Z,2.80
2018-07-12T19:25:37.562Z,2.43
2018-07-12T19:28:05.267Z,2.73
2018-07-12T19:30:32.918Z,2.60
2018-07-12T19:33:00.578Z,3.10
2018-07-12T19:35:28.226Z,2.90
2018-07-12T19:37:55.916Z,3.30
2018-07-12T19:40:23.597Z,2.93
2018-07-12T19:42:51.354Z,2.80
2018-07-12T19:45:19.033Z,2.40
2018-07-12T19:47:46.732Z,2.90
2018-07-12T19:50:14.416Z,2.73
2018-07-12T19:52:42.094Z,2.63
2018-07-12T19:55:09.758Z,3.10
2018-07-12T19:57:37.458Z,3.00
2018-07-12T20:00:05.350Z,2.80
2018-07-12T20:02:33.031Z,3.33
2018-07-12T20:05:00.698Z,3.20
2018-07-12T20:07:28.384Z,3.30
2018-07-12T20:09:56.046Z,3.70
2018-07-12T20:12:23.734Z,3.47
2018-07-12T20:14:51.396Z,3.20
2018-07-12T20:17:19.065Z,3.57
2018-07-12T20:19:46.867Z,3.30
2018-07-12T20:22:14.574Z,3.27
2018-07-12T20:24:42.229Z,3.30
2018-07-12T20:27:09.934Z,3.50
2018-07-12T20:29:37.581Z,2.57
2018-07-12T20:32:05.290Z,3.17
2018-07-12T20:34:32.954Z,3.40
2018-07-12T20:37:00.626Z,3.30
2018-07-12T20:39:28.284Z,3.13
2018-07-12T20:41:55.961Z,3.27
2018-07-12T20:44:23.646Z,3.20
2018-07-12T20:47:05.910Z,2.90
2018-07-12T20:49:33.602Z,3.30
2018-07-12T20:52:01.284Z,3.00
2018-07-12T20:54:29.002Z,2.63
2018-07-12T20:56:56.686Z,2.90
2018-07-12T20:59:24.350Z,3.30
2018-07-12T21:01:52.034Z,3.07
2018-07-12T21:04:19.713Z,3.03
2018-07-12T21:06:47.378Z,3.00
2018-07-12T21:09:15.030Z,3.30
2018-07-12T21:11:42.681Z,3.20
2018-07-12T21:14:10.364Z,2.83
2018-07-12T21:16:38.014Z,3.50
2018-07-12T21:19:05.695Z,3.27
2018-07-12T21:21:33.394Z,3.47
2018-07-12T21:24:01.058Z,3.30
2018-07-12T21:26:28.705Z,3.50
2018-07-12T21:28:56.351Z,3.80
2018-07-12T21:31:23.993Z,3.17
2018-07-12T21:33:51.921Z,3.67
2018-07-12T21:36:19.583Z,3.57
2018-07-12T21:38:47.265Z,3.90
2018-07-12T21:41:14.931Z,3.80
2018-07-12T21:43:42.570Z,3.67
2018-07-12T21:46:10.239Z,3.90
2018-07-12T21:48:37.909Z,3.80
2018-07-12T21:51:05.581Z,3.67
2018-07-12T21:53:33.230Z,3.90
2018-07-12T21:56:00.911Z,4.43
2018-07-12T21:58:28.596Z,4.33
2018-07-12T22:00:56.260Z,4.37
2018-07-12T22:03:23.907Z,4.23
2018-07-12T22:05:51.574Z,4.83
2018-07-12T22:08:25.347Z,4.60
2018-07-12T22:11:00.893Z,4.40
2018-07-12T22:13:29.283Z,3.93
2018-07-12T22:15:56.965Z,4.63
2018-07-12T22:18:24.626Z,4.40
2018-07-12T22:20:52.277Z,4.43
2018-07-12T22:23:19.946Z,5.10
2018-07-12T22:25:47.616Z,5.23
2018-07-12T22:28:15.367Z,5.20
2018-07-12T22:30:43.198Z,5.57
2018-07-12T22:33:10.845Z,5.27
2018-07-12T22:35:38.568Z,4.97
2018-07-12T22:38:06.241Z,4.70
2018-07-12T22:40:33.921Z,5.13
2018-07-12T22:43:01.579Z,4.93
2018-07-12T22:45:29.270Z,5.13
2018-07-12T22:47:57.040Z,4.30
2018-07-12T22:50:24.701Z,4.43
2018-07-12T22:52:52.434Z,5.23
2018-07-12T22:55:20.101Z,5.10
2018-07-12T22:57:47.794Z,5.37
2018-07-12T23:00:15.465Z,4.97
2018-07-12T23:02:43.126Z,4.87
2018-07-12T23:05:10.799Z,5.00
2018-07-12T23:07:38.445Z,4.70
2018-07-12T23:10:06.171Z,4.60
2018-07-12T23:12:33.821Z,4.40
2018-07-12T23:15:01.518Z,4.47
2018-07-12T23:17:29.194Z,5.07
2018-07-12T23:19:56.870Z,4.97
2018-07-12T23:22:24.525Z,5.43
2018-07-12T23:24:52.228Z,5.70
2018-07-12T23:27:19.897Z,4.57
2018-07-12T23:29:47.705Z,4.90
2018-07-12T23:32:15.426Z,4.43
2018-07-12T23:34:43.094Z,4.80
2018-07-12T23:37:10.822Z,5.17
2018-07-12T23:39:38.477Z,5.10
2018-07-12T23:42:06.135Z,5.23
2018-07-12T23:44:33.813Z,5.03
2018-07-12T23:47:01.529Z,5.10
2018-07-12T23:49:29.226Z,5.50
2018-07-12T23:51:56.904Z,5.50
2018-07-12T23:54:24.585Z,4.80
2018-07-12T23:56:52.475Z,5.73
2018-07-12T23:59:20.321Z,5.37
